Portada
METAR-TAF:

METAR-TAF

Aeroports :

Sirri Island, Iran

latitud: 25-54-34N, longitud: 054-32-22E, altitud: 13 m

Observació

L'informe es va fer fa 1 hora i 11 minuts, a les 11:00 UTC
Vent 6 kt del Sud
Temperatura 36°C
Humitat 64%
Pressió 994 hPa
Visibilitat 10 km o més
sense núvols per sota de 1500 mi sense presència de cumulonimbus.

METAR: OIBS 161100Z 18006KT CAVOK 36/28 Q0994

Hora: 16:41 (12:11 UTC)


TAF: manca

Observacions i pronòstics meteorològics de més de 4000 aeroports (METAR i TAF).

Les estacions disponibles són els punts grocs i vermells al mapa.

Posi el ratolí al punt desitjat per veure el nom de l'estació.

Feu clic per veure les observacions i els pronòstics meteorològics.

Per canviar el mapa: feu clic els botons verds amb una creu de color negre per apropar; al botó verd amb un guió per allunyar la imatge; o en les fletxes verdes per a mapes adjacents.


METAR-TAF: